Main page
METAR-TAF:

METAR-TAF

Airports :

N'Djamena, Chad

N'Djamena International Airport

latitude: 12-08N, longitude: 015-02E, elevation: 295 m

Current weather observation

The report was made 57 minutes ago, at 13:00 UTC
Wind 8 kt from the North, varying between North/Northwest and Northeast
Temperature 42°C
Humidity 10%
Pressure 1008 hPa
Visibility: 5000 m
widespread dust

METAR: FTTJ 241300Z 36008KT 330V040 5000 DU NSC 42/04 Q1008 NOSIG

Time: 14:57 (13:57 UTC)

Forecast

The report was made 2 hours and 57 minutes ago, at 11:00 UTC
Forecast valid from 24 at 12 UTC to 25 at 18 UTC
Wind 10 kt from the East/Northeast
Visibility: 3000 m
haze
Temporary
from 24 at 16 UTC to 24 at 20 UTC
Visibility: 1500 m

TAF: FTTJ 241100Z 2412/2518 06010KT 3000 HZ NSC TEMPO 2416/2420 1500

Weather observations and forecasts of more than 4000 airports (METAR and TAF reports).

The available stations are represented by yellow and red dots on the map.

Hover mouse over dot to see the name of the station.

Then click to see weather observations and forecasts.

To change the map : click on the green buttons with a black cross to zoom in, on the green button with a dash to zoom out, or on the green arrows for adjacent maps.


METAR-TAF: